Time;durP1;ratioP1;P1;durP2;ratioP2;P2;SDS_P1;SDS_P2;PMS_P1;PMS_P2;Temp;Humidity;BMP_temperature;BMP_pressure;BME280_temperature;BME280_humidity;BME280_pressure;Samples;Min_cycle;Max_cycle;Signal;HPM_P1;HPM_P2
2022/04/27 00:01:12;;;;;;;0.98;0.85;;;;;;;10.53;100.00;97258.75;5095593;28;20036;-87
2022/04/27 00:03:38;;;;;;;1.27;0.90;;;;;;;10.64;100.00;97269.63;5094603;28;20035;-88
2022/04/27 00:06:04;;;;;;;1.08;1.08;;;;;;;10.48;100.00;97244.84;5094261;28;20116;-89
2022/04/27 00:08:29;;;;;;;0.73;0.73;;;;;;;10.52;100.00;97262.41;5094838;28;20081;-87
2022/04/27 00:10:55;;;;;;;3.88;2.20;;;;;;;10.38;100.00;97259.78;5094466;28;20023;-87
2022/04/27 00:13:20;;;;;;;2.22;1.42;;;;;;;10.41;100.00;97263.09;5095050;28;20027;-87
2022/04/27 00:15:46;;;;;;;1.35;1.15;;;;;;;10.45;100.00;97277.13;5094955;28;20511;-88
2022/04/27 00:18:12;;;;;;;0.68;0.68;;;;;;;10.42;100.00;97263.97;5094446;28;20035;-88
2022/04/27 00:20:37;;;;;;;0.22;0.22;;;;;;;10.42;100.00;97274.66;5095390;28;20031;-89
2022/04/27 00:23:03;;;;;;;1.38;1.10;;;;;;;10.36;100.00;97267.06;5094647;28;20028;-87
2022/04/27 00:25:28;;;;;;;1.67;1.23;;;;;;;10.34;100.00;97276.00;5097853;28;20024;-89
2022/04/27 00:27:54;;;;;;;1.08;0.98;;;;;;;10.26;100.00;97275.66;5098654;28;20027;-87
2022/04/27 00:30:20;;;;;;;2.40;1.33;;;;;;;10.30;100.00;97253.09;5098125;28;20551;-89
2022/04/27 00:32:45;;;;;;;1.65;1.10;;;;;;;10.32;100.00;97256.56;5097951;28;20020;-88
2022/04/27 00:35:11;;;;;;;2.63;1.35;;;;;;;10.39;100.00;97272.19;5114988;28;20027;-88
2022/04/27 00:37:37;;;;;;;2.15;1.13;;;;;;;10.44;100.00;97276.28;5115317;28;20098;-88
2022/04/27 00:40:03;;;;;;;2.83;1.17;;;;;;;10.42;100.00;97263.97;5097985;28;20024;-88
2022/04/27 00:42:29;;;;;;;1.58;1.48;;;;;;;10.48;100.00;97275.13;5098201;28;20118;-88
2022/04/27 00:44:55;;;;;;;0.68;0.68;;;;;;;10.43;100.00;97274.53;5098125;28;20051;-88
2022/04/27 00:47:20;;;;;;;1.40;1.20;;;;;;;10.47;100.00;97281.41;5098250;28;20020;-88
2022/04/27 00:49:54;;;;;;;3.45;1.67;;;;;;;10.46;100.00;97284.22;5098097;28;20032;-88
2022/04/27 00:52:20;;;;;;;2.85;1.67;;;;;;;10.36;100.00;97275.94;5098494;28;20062;-88
2022/04/27 00:54:48;;;;;;;1.20;1.10;;;;;;;10.38;100.00;97275.81;5097852;28;20040;-88
2022/04/27 00:57:14;;;;;;;3.22;1.40;;;;;;;10.30;100.00;97269.16;5097639;28;20031;-87
2022/04/27 00:59:40;;;;;;;1.08;1.00;;;;;;;10.37;100.00;97284.81;5097686;28;20027;-87
2022/04/27 01:02:07;;;;;;;1.83;1.58;;;;;;;10.26;100.00;97285.50;5098240;28;20030;-88
2022/04/27 01:04:36;;;;;;;0.60;0.60;;;;;;;10.24;100.00;97279.41;5097970;28;20031;-88
2022/04/27 01:07:02;;;;;;;1.50;1.02;;;;;;;10.23;100.00;97275.88;5106190;28;20027;-88
2022/04/27 01:09:32;;;;;;;4.28;1.30;;;;;;;10.26;100.00;97286.38;5098539;28;20036;-87
2022/04/27 01:11:58;;;;;;;1.60;0.85;;;;;;;10.11;100.00;97247.25;5116282;28;20027;-88
2022/04/27 01:14:25;;;;;;;0.82;0.82;;;;;;;10.10;100.00;97261.53;5098105;28;20078;-88
2022/04/27 01:16:54;;;;;;;0.60;0.60;;;;;;;10.08;100.00;97262.59;5097898;28;20418;-88
2022/04/27 01:19:23;;;;;;;2.53;1.30;;;;;;;10.31;100.00;97278.88;5097582;28;20030;-88
2022/04/27 01:21:49;;;;;;;0.70;0.70;;;;;;;10.17;100.00;97256.69;5097787;28;20024;-88
2022/04/27 01:24:20;;;;;;;0.85;0.65;;;;;;;10.22;100.00;97260.78;5098006;28;20122;-88
2022/04/27 01:26:47;;;;;;;0.85;0.85;;;;;;;10.23;100.00;97256.28;5097532;28;20050;-88
2022/04/27 01:29:17;;;;;;;0.32;0.32;;;;;;;10.32;100.00;97283.28;5097140;28;20045;-89
2022/04/27 01:31:43;;;;;;;0.85;0.77;;;;;;;10.20;100.00;97257.38;5097001;28;20028;-85
2022/04/27 01:34:10;;;;;;;0.60;0.57;;;;;;;10.33;100.00;97274.31;5097655;28;20031;-87
2022/04/27 01:36:36;;;;;;;1.77;1.05;;;;;;;10.37;100.00;97266.94;5097381;28;20107;-87
2022/04/27 01:39:01;;;;;;;0.73;0.73;;;;;;;10.38;100.00;97251.75;5096640;28;20134;-88
2022/04/27 01:41:27;;;;;;;1.15;1.05;;;;;;;10.43;100.00;97263.03;5096864;28;20092;-88
2022/04/27 01:43:52;;;;;;;0.93;0.70;;;;;;;10.46;100.00;97263.66;5113792;28;20042;-88
2022/04/27 01:46:18;;;;;;;0.35;0.35;;;;;;;10.53;100.00;97258.75;5096474;28;20030;-88
2022/04/27 01:48:44;;;;;;;0.95;0.82;;;;;;;10.70;100.00;97261.19;5097021;28;20024;-87
2022/04/27 01:51:09;;;;;;;0.70;0.70;;;;;;;10.76;100.00;97266.97;5096743;28;20463;-88
2022/04/27 01:56:20;;;;;;;0.38;0.35;;;;;;;10.77;100.00;97267.81;5114226;28;20050;-87
2022/04/27 01:58:45;;;;;;;0.52;0.52;;;;;;;10.74;100.00;97279.59;5096184;28;20024;-87
2022/04/27 02:01:12;;;;;;;0.40;0.40;;;;;;;10.63;100.00;97273.25;5096420;28;20043;-86
2022/04/27 02:03:39;;;;;;;0.30;0.30;;;;;;;10.75;100.00;97278.63;5096689;28;20042;-86
2022/04/27 02:06:06;;;;;;;0.93;0.80;;;;;;;10.43;100.00;97265.69;5096946;28;20114;-87
2022/04/27 02:08:31;;;;;;;1.08;0.52;;;;;;;10.21;100.00;97256.38;5096446;28;20554;-87
2022/04/27 02:10:57;;;;;;;0.60;0.60;;;;;;;10.13;100.00;97266.72;5096773;28;20082;-88
2022/04/27 02:13:25;;;;;;;1.20;1.13;;;;;;;9.84;100.00;97258.84;5113321;28;20023;-88
2022/04/27 02:15:51;;;;;;;2.17;1.25;;;;;;;9.82;100.00;97272.28;5096347;28;20074;-89
2022/04/27 02:18:19;;;;;;;0.47;0.47;;;;;;;9.59;100.00;97260.38;5096269;28;20055;-88
2022/04/27 02:20:47;;;;;;;0.70;0.70;;;;;;;9.64;100.00;97284.13;5096483;28;20038;-88
2022/04/27 02:23:13;;;;;;;1.25;0.95;;;;;;;9.54;100.00;97280.28;5096243;28;20122;-88
2022/04/27 02:25:39;;;;;;;1.25;0.90;;;;;;;9.36;100.00;97265.41;5096283;28;20063;-88
2022/04/27 02:28:12;;;;;;;3.50;1.85;;;;;;;9.53;100.00;97289.28;5096139;28;20104;-89
2022/04/27 02:30:41;;;;;;;2.53;1.35;;;;;;;9.61;100.00;97292.31;5076005;28;20422;-88
2022/04/27 02:33:06;;;;;;;2.72;1.73;;;;;;;9.36;100.00;97273.41;5087126;28;20132;-88
2022/04/27 02:35:32;;;;;;;2.17;1.67;;;;;;;9.29;100.00;97261.44;5109415;28;20441;-88
2022/04/27 02:37:58;;;;;;;1.70;1.20;;;;;;;9.34;100.00;97273.53;5091931;28;20143;-87
2022/04/27 02:40:23;;;;;;;1.33;0.90;;;;;;;9.26;100.00;97274.00;5092571;28;20089;-88
2022/04/27 02:42:49;;;;;;;0.88;0.85;;;;;;;9.27;100.00;97270.38;5097811;28;20031;-88
2022/04/27 02:45:15;;;;;;;3.85;1.77;;;;;;;9.37;100.00;97277.81;5095990;28;20023;-88
2022/04/27 02:47:40;;;;;;;0.90;0.80;;;;;;;9.37;100.00;97283.16;5094879;28;20045;-88
2022/04/27 02:52:51;;;;;;;2.30;1.13;;;;;;;9.25;100.00;97274.97;5112794;28;20092;-88
2022/04/27 02:55:16;;;;;;;1.73;1.35;;;;;;;9.25;100.00;97272.28;5095939;28;20027;-88
2022/04/27 02:57:51;;;;;;;1.65;1.15;;;;;;;9.44;100.00;97293.38;5097558;28;20518;-90
2022/04/27 03:00:17;;;;;;;2.83;1.77;;;;;;;9.33;100.00;97285.16;5097003;28;21131;-89
2022/04/27 03:02:42;;;;;;;4.13;2.10;;;;;;;9.46;100.00;97304.81;5095936;28;20024;-89
2022/04/27 03:05:08;;;;;;;1.13;1.00;;;;;;;9.33;100.00;97284.28;5096043;28;20092;-89
2022/04/27 03:07:34;;;;;;;0.75;0.73;;;;;;;9.39;100.00;97310.59;5095854;28;20138;-89
2022/04/27 03:10:00;;;;;;;2.53;1.27;;;;;;;9.22;100.00;97291.16;5095765;28;20024;-88
2022/04/27 03:12:25;;;;;;;1.90;1.20;;;;;;;9.24;100.00;97291.91;5112807;28;20141;-89
2022/04/27 03:14:51;;;;;;;1.95;1.70;;;;;;;9.19;100.00;97296.69;5096300;28;20414;-88
2022/04/27 03:17:17;;;;;;;2.50;2.10;;;;;;;9.16;100.00;97291.53;5112839;28;20032;-88
2022/04/27 03:19:43;;;;;;;1.13;1.05;;;;;;;9.18;100.00;97318.97;5113251;28;20043;-88
2022/04/27 03:22:08;;;;;;;1.40;0.95;;;;;;;9.32;100.00;97336.81;5095508;28;20023;-87
2022/04/27 03:24:35;;;;;;;1.73;1.33;;;;;;;9.27;100.00;97334.44;5095340;28;20055;-88
2022/04/27 03:27:00;;;;;;;1.52;1.23;;;;;;;9.24;100.00;97334.63;5095603;28;20080;-87
2022/04/27 03:29:26;;;;;;;2.33;0.77;;;;;;;9.19;100.00;97339.38;5095223;28;20106;-87
2022/04/27 03:31:51;;;;;;;1.20;1.10;;;;;;;9.25;100.00;97338.16;5094675;28;20027;-88
2022/04/27 03:34:17;;;;;;;1.88;1.65;;;;;;;9.31;100.00;97344.91;5112173;28;20019;-88
2022/04/27 03:36:42;;;;;;;1.10;1.00;;;;;;;9.27;100.00;97333.56;5111807;28;20510;-88
2022/04/27 03:39:09;;;;;;;2.33;1.58;;;;;;;9.29;100.00;97336.16;5112608;28;20031;-89
2022/04/27 03:41:35;;;;;;;1.33;1.23;;;;;;;9.29;100.00;97345.00;5095909;28;20019;-89
2022/04/27 03:44:00;;;;;;;1.27;0.88;;;;;;;9.29;100.00;97346.84;5095732;28;20027;-88
2022/04/27 03:46:26;;;;;;;1.27;1.17;;;;;;;9.30;100.00;97343.19;5095759;28;20019;-88
2022/04/27 03:48:52;;;;;;;1.48;1.38;;;;;;;9.33;100.00;97345.69;5096495;28;20019;-89
2022/04/27 03:51:17;;;;;;;3.50;0.82;;;;;;;9.38;100.00;97356.97;5095222;28;20127;-74
2022/04/27 03:53:44;;;;;;;1.45;1.00;;;;;;;9.42;100.00;97353.13;5095060;28;20059;-89
2022/04/27 03:56:09;;;;;;;1.85;1.10;;;;;;;9.47;100.00;97367.06;5112772;28;20032;-89
2022/04/27 03:58:35;;;;;;;0.77;0.68;;;;;;;9.42;100.00;97342.44;5097184;28;20121;-88
2022/04/27 04:01:01;;;;;;;3.15;2.05;;;;;;;9.55;100.00;97352.31;5119093;28;20024;-89
2022/04/27 04:03:26;;;;;;;2.88;1.30;;;;;;;9.60;100.00;97358.22;5100989;28;20020;-88
2022/04/27 04:12:50;;;;;;;3.50;2.40;;;;;;;9.66;100.00;97356.97;5014466;28;20037;-89
2022/04/27 04:15:16;;;;;;;2.40;1.80;;;;;;;9.66;100.00;97354.31;5080685;28;20042;-90
2022/04/27 04:17:45;;;;;;;2.72;0.60;;;;;;;9.70;100.00;97350.50;5108434;28;20027;-90
2022/04/27 04:20:13;;;;;;;1.88;1.70;;;;;;;9.87;100.00;97358.34;5103000;28;20031;-91
2022/04/27 04:22:39;;;;;;;3.65;2.00;;;;;;;10.10;100.00;97378.25;5096774;28;20028;-73
2022/04/27 04:30:33;;;;;;;1.42;1.08;;;;;;;10.29;100.00;97385.06;5112920;28;20080;-73
2022/04/27 04:32:59;;;;;;;1.02;0.98;;;;;;;10.21;100.00;97384.69;5112983;28;20114;-73
2022/04/27 04:35:24;;;;;;;1.35;1.25;;;;;;;10.31;100.00;97398.31;5113162;28;20391;-73
2022/04/27 04:37:50;;;;;;;4.63;2.50;;;;;;;10.33;100.00;97402.66;5095812;28;20044;-74
2022/04/27 04:40:16;;;;;;;1.77;1.65;;;;;;;10.41;100.00;97395.94;5113111;28;20171;-71
2022/04/27 04:42:41;;;;;;;2.72;1.60;;;;;;;10.65;100.00;97405.91;5095711;28;20129;-75
2022/04/27 04:45:07;;;;;;;3.03;1.20;;;;;;;10.63;100.00;97407.84;5113127;28;20081;-73
2022/04/27 04:47:33;;;;;;;3.05;1.70;;;;;;;10.78;100.00;97408.66;5095983;28;20055;-72
2022/04/27 04:49:58;;;;;;;2.60;2.17;;;;;;;10.89;100.00;97419.50;5112814;28;20460;-73
2022/04/27 04:52:24;;;;;;;2.58;2.05;;;;;;;10.97;100.00;97419.03;5095939;28;20341;-72
2022/04/27 04:54:49;;;;;;;3.53;2.13;;;;;;;11.11;100.00;97416.28;5095711;28;20031;-72
2022/04/27 04:57:15;;;;;;;2.70;2.40;;;;;;;11.19;100.00;97419.31;5112802;28;20054;-72
2022/04/27 04:59:40;;;;;;;3.72;2.20;;;;;;;11.36;100.00;97422.59;5112601;28;20028;-73
2022/04/27 05:02:06;;;;;;;18.40;2.47;;;;;;;11.56;100.00;97428.44;5112514;28;20181;-72
2022/04/27 05:04:32;;;;;;;5.15;2.58;;;;;;;11.61;100.00;97429.81;5095643;28;20407;-73
2022/04/27 05:06:57;;;;;;;1.60;1.50;;;;;;;11.69;100.00;97430.16;5113636;28;20464;-72
2022/04/27 05:09:23;;;;;;;3.15;2.33;;;;;;;11.80;100.00;97416.06;5095055;28;20051;-73
2022/04/27 05:11:48;;;;;;;3.25;1.60;;;;;;;11.93;100.00;97417.78;5095242;28;20027;-73
2022/04/27 05:14:14;;;;;;;1.70;1.58;;;;;;;12.18;100.00;97414.25;5112238;27;20058;-73
2022/04/27 05:16:39;;;;;;;1.48;1.38;;;;;;;12.34;100.00;97417.56;5095454;28;20554;-73
2022/04/27 05:19:05;;;;;;;1.30;1.20;;;;;;;12.49;100.00;97415.59;5112258;28;20517;-72
2022/04/27 05:21:31;;;;;;;1.45;1.35;;;;;;;12.52;100.00;97422.59;5112183;28;20015;-72
2022/04/27 05:23:56;;;;;;;0.75;0.75;;;;;;;12.68;100.00;97415.13;5111733;28;20063;-72
2022/04/27 05:26:22;;;;;;;1.67;1.30;;;;;;;13.32;100.00;97422.03;5095198;28;20031;-73
2022/04/27 05:34:16;;;;;;;1.50;1.40;;;;;;;18.77;79.91;97440.47;5112359;28;20034;-73
2022/04/27 05:36:41;;;;;;;2.47;1.88;;;;;;;20.23;75.59;97447.56;5111960;28;20451;-73
2022/04/27 05:39:07;;;;;;;2.58;1.88;;;;;;;21.93;64.90;97452.06;5094594;28;20541;-74
2022/04/27 05:41:34;;;;;;;8.35;2.67;;;;;;;23.03;57.94;97446.91;5094827;28;20100;-73
2022/04/27 05:44:02;;;;;;;2.78;1.77;;;;;;;24.21;54.57;97461.19;5094645;28;20069;-73
2022/04/27 05:46:28;;;;;;;1.27;0.85;;;;;;;25.26;50.41;97445.69;5111747;28;20035;-74
2022/04/27 05:48:54;;;;;;;4.22;2.22;;;;;;;26.01;47.14;97440.78;5111528;28;20080;-74
2022/04/27 05:51:19;;;;;;;4.10;1.58;;;;;;;26.37;44.63;97429.75;5094536;28;20517;-73
2022/04/27 05:53:45;;;;;;;10.68;2.30;;;;;;;26.26;43.96;97433.06;5111681;28;20024;-72
2022/04/27 05:56:12;;;;;;;1.58;1.35;;;;;;;26.42;42.35;97434.69;5111482;28;20045;-72
2022/04/27 05:58:38;;;;;;;2.67;2.00;;;;;;;26.58;42.42;97442.66;5111385;28;20036;-73
2022/04/27 06:01:04;;;;;;;0.70;0.70;;;;;;;27.82;40.68;97437.13;5111188;28;20031;-73
2022/04/27 06:03:30;;;;;;;1.05;0.93;;;;;;;28.14;38.88;97436.44;5094272;28;20106;-72
2022/04/27 06:05:56;;;;;;;3.72;1.00;;;;;;;28.06;39.40;97439.34;5111477;28;20119;-72
2022/04/27 06:08:21;;;;;;;0.60;0.60;;;;;;;28.20;39.31;97438.34;5112686;28;20023;-72
2022/04/27 06:10:47;;;;;;;2.50;1.20;;;;;;;28.23;37.78;97426.94;5112634;28;20172;-72
2022/04/27 06:13:13;;;;;;;0.75;0.75;;;;;;;28.92;37.58;97426.56;5093786;28;20058;-72
2022/04/27 06:15:39;;;;;;;4.68;1.02;;;;;;;28.89;36.67;97426.97;5111395;28;20028;-73
2022/04/27 06:18:05;;;;;;;0.70;0.68;;;;;;;29.78;35.91;97418.97;5110983;28;20028;-73
2022/04/27 06:20:31;;;;;;;0.45;0.28;;;;;;;29.64;35.30;97420.06;5111143;28;20114;-73
2022/04/27 06:22:57;;;;;;;0.20;0.20;;;;;;;28.83;36.14;97423.16;5093650;28;20034;-73
2022/04/27 06:25:25;;;;;;;0.40;0.40;;;;;;;28.28;36.34;97432.63;5111220;28;20054;-73
2022/04/27 06:27:51;;;;;;;0.98;0.50;;;;;;;28.48;37.24;97433.53;5094326;28;20027;-73
2022/04/27 06:30:17;;;;;;;1.65;0.80;;;;;;;28.69;37.06;97421.50;5110859;28;20084;-73
2022/04/27 06:32:42;;;;;;;0.40;0.40;;;;;;;29.64;36.00;97433.84;5093918;28;20030;-73
2022/04/27 06:35:12;;;;;;;0.88;0.35;;;;;;;30.10;34.59;97426.25;5093693;28;20024;-73
2022/04/27 06:37:41;;;;;;;0.80;0.80;;;;;;;29.74;35.12;97434.25;5110736;28;20177;-74
2022/04/27 06:40:08;;;;;;;0.73;0.45;;;;;;;29.79;35.29;97437.19;5093601;28;20024;-73
2022/04/27 06:42:34;;;;;;;0.40;0.40;;;;;;;28.90;36.92;97425.94;5094025;28;20490;-73
2022/04/27 06:45:04;;;;;;;1.10;0.20;;;;;;;28.00;38.02;97440.16;5093771;28;20114;-72
2022/04/27 06:47:30;;;;;;;3.53;0.88;;;;;;;26.85;39.69;97441.84;5093609;28;20027;-72
2022/04/27 06:49:55;;;;;;;54.53;2.38;;;;;;;26.81;40.33;97440.53;5110663;28;20028;-72
2022/04/27 06:52:21;;;;;;;1.10;0.63;;;;;;;27.23;39.58;97437.66;5093318;28;20066;-72
2022/04/27 06:54:47;;;;;;;5.57;1.45;;;;;;;28.91;36.64;97422.13;5110550;28;20039;-72
2022/04/27 06:57:12;;;;;;;0.25;0.25;;;;;;;30.22;35.02;97432.75;5110161;28;20027;-72
2022/04/27 06:59:38;;;;;;;0.70;0.70;;;;;;;30.16;33.82;97422.59;5110225;28;20443;-71
2022/04/27 07:02:04;;;;;;;0.30;0.30;;;;;;;30.14;34.11;97427.50;5093159;28;20031;-71
2022/04/27 07:04:31;;;;;;;0.85;0.70;;;;;;;30.63;33.34;97422.09;5092942;28;20117;-73
2022/04/27 07:06:57;;;;;;;0.28;0.28;;;;;;;30.18;34.33;97425.97;5110385;28;20056;-73
2022/04/27 07:09:23;;;;;;;0.40;0.40;;;;;;;28.73;35.69;97430.19;5110119;28;20027;-72
2022/04/27 07:11:48;;;;;;;0.30;0.30;;;;;;;28.87;36.23;97421.69;5110198;28;20030;-72
2022/04/27 07:14:16;;;;;;;0.63;0.35;;;;;;;28.06;36.42;97433.84;5109910;28;20027;-72
2022/04/27 07:16:43;;;;;;;0.75;0.38;;;;;;;27.95;37.35;97428.94;5093112;28;20494;-72
2022/04/27 07:19:08;;;;;;;0.90;0.50;;;;;;;28.06;38.02;97442.09;5110111;28;20035;-72
2022/04/27 07:21:34;;;;;;;6.07;2.65;;;;;;;28.99;35.47;97425.50;5109991;28;20070;-72
2022/04/27 07:24:02;;;;;;;5.45;2.55;;;;;;;29.98;34.93;97431.63;5109984;28;20475;-72
2022/04/27 07:26:28;;;;;;;4.78;2.42;;;;;;;29.70;34.21;97413.66;5109928;28;20299;-73
2022/04/27 07:28:55;;;;;;;8.10;2.58;;;;;;;29.53;34.86;97430.69;5092962;28;20765;-72
2022/04/27 07:31:22;;;;;;;11.50;2.47;;;;;;;29.57;35.09;97423.69;5109823;28;20032;-72
2022/04/27 07:33:47;;;;;;;3.10;2.50;;;;;;;29.47;35.61;97422.47;5109653;28;20118;-72
2022/04/27 07:36:13;;;;;;;4.72;2.63;;;;;;;30.78;34.07;97426.44;5109770;28;20106;-73
2022/04/27 07:38:39;;;;;;;5.90;2.55;;;;;;;31.82;32.51;97420.94;5092396;28;20159;-72
2022/04/27 07:41:05;;;;;;;13.70;3.75;;;;;;;32.39;31.43;97420.41;5109750;28;20023;-72
2022/04/27 07:43:31;;;;;;;5.70;2.53;;;;;;;31.23;32.65;97408.59;5109526;28;20028;-72
2022/04/27 07:45:56;;;;;;;5.60;2.72;;;;;;;32.39;31.12;97414.84;5110039;28;20101;-72
2022/04/27 07:48:22;;;;;;;10.63;2.65;;;;;;;32.24;30.28;97410.81;5109642;28;20095;-72
2022/04/27 07:50:48;;;;;;;18.63;3.20;;;;;;;32.29;30.37;97403.50;5109736;28;20023;-72
2022/04/27 07:53:13;;;;;;;8.48;2.95;;;;;;;31.93;31.53;97398.84;5111011;28;20080;-72
2022/04/27 07:55:39;;;;;;;10.70;2.58;;;;;;;31.92;30.75;97402.72;5109535;28;20475;-72
2022/04/27 07:58:05;;;;;;;7.85;2.55;;;;;;;30.31;32.94;97403.81;5101182;28;20035;-72
2022/04/27 08:00:31;;;;;;;3.65;2.35;;;;;;;29.59;33.89;97406.94;5092317;28;20062;-72
2022/04/27 08:02:57;;;;;;;6.25;2.35;;;;;;;31.09;32.02;97396.84;5092658;28;20490;-72
2022/04/27 08:05:23;;;;;;;7.95;2.90;;;;;;;31.61;30.05;97395.44;5109448;28;20073;-72
2022/04/27 08:07:48;;;;;;;9.18;3.10;;;;;;;32.03;30.08;97393.63;5092543;28;20344;-72
2022/04/27 08:10:19;;;;;;;10.13;3.17;;;;;;;32.49;29.75;97392.09;5092661;28;20078;-72
2022/04/27 08:12:49;;;;;;;15.27;4.30;;;;;;;32.07;30.48;97399.56;5092354;28;20477;-72
2022/04/27 08:15:16;;;;;;;13.05;3.10;;;;;;;32.67;29.30;97394.84;5109726;28;20023;-72
2022/04/27 08:17:52;;;;;;;10.70;2.95;;;;;;;33.54;27.69;97387.47;5092204;28;20564;-72
2022/04/27 08:23:11;;;;;;;6.25;3.08;;;;;;;35.04;26.70;97379.59;5109660;28;20099;-73
2022/04/27 08:25:37;;;;;;;9.50;2.67;;;;;;;34.75;26.40;97381.63;5092172;28;20024;-72
2022/04/27 08:28:06;;;;;;;7.55;2.88;;;;;;;34.72;27.56;97382.97;5092426;28;20020;-72
2022/04/27 08:30:40;;;;;;;8.52;2.88;;;;;;;34.94;27.26;97380.28;5092537;28;20032;-73
2022/04/27 08:33:07;;;;;;;7.68;2.67;;;;;;;35.60;27.14;97378.50;5092591;28;20039;-73
2022/04/27 08:35:34;;;;;;;10.68;2.20;;;;;;;35.33;25.67;97368.09;5092523;28;20118;-72
2022/04/27 08:38:00;;;;;;;6.55;2.05;;;;;;;35.24;26.87;97368.78;5091868;28;20567;-73
2022/04/27 08:40:26;;;;;;;7.57;2.35;;;;;;;35.32;25.52;97362.78;5109563;28;20058;-73
2022/04/27 08:42:53;;;;;;;17.70;2.58;;;;;;;35.54;26.21;97365.59;5092044;28;20028;-73
2022/04/27 08:45:19;;;;;;;11.35;2.30;;;;;;;35.05;26.44;97354.28;5093988;28;20020;-73
2022/04/27 08:47:49;;;;;;;8.77;2.55;;;;;;;35.22;25.43;97359.88;5095517;28;20379;-73
2022/04/27 08:50:17;;;;;;;11.88;3.40;;;;;;;34.95;25.95;97342.19;5112786;28;20015;-73
2022/04/27 08:52:43;;;;;;;6.15;3.28;;;;;;;34.90;26.93;97347.66;5095630;28;20059;-73
2022/04/27 08:55:10;;;;;;;6.45;2.00;;;;;;;35.01;25.91;97346.72;5095844;28;20031;-74
2022/04/27 08:57:36;;;;;;;4.70;2.30;;;;;;;34.45;26.67;97337.44;5113010;28;20026;-73
2022/04/27 09:00:07;;;;;;;9.10;2.53;;;;;;;34.60;27.46;97357.19;5112534;28;20483;-73
2022/04/27 09:02:33;;;;;;;7.87;1.77;;;;;;;34.72;25.85;97337.63;5095346;28;20050;-73
2022/04/27 09:05:08;;;;;;;7.05;2.03;;;;;;;35.11;26.86;97349.69;5095254;28;20277;-73
2022/04/27 09:07:38;;;;;;;7.82;2.17;;;;;;;33.93;28.30;97360.88;5112485;28;20023;-73
2022/04/27 09:10:06;;;;;;;6.03;2.10;;;;;;;34.18;27.95;97337.22;5112366;28;20122;-73
2022/04/27 09:12:31;;;;;;;3.75;2.00;;;;;;;32.97;29.32;97347.63;5095496;28;20027;-73
2022/04/27 09:15:07;;;;;;;4.40;1.85;;;;;;;32.20;30.19;97344.00;5095106;28;20055;-73
2022/04/27 09:23:03;;;;;;;12.32;3.15;;;;;;;33.12;30.38;97348.84;5112657;28;20037;-73
2022/04/27 09:25:33;;;;;;;3.95;2.17;;;;;;;33.75;28.72;97337.75;5095218;28;20049;-73
2022/04/27 09:28:03;;;;;;;3.83;2.15;;;;;;;33.43;28.04;97333.72;5094842;28;20030;-73
2022/04/27 09:30:30;;;;;;;5.20;1.98;;;;;;;33.46;29.48;97326.84;5112098;28;20102;-73
2022/04/27 09:32:57;;;;;;;6.00;1.90;;;;;;;34.44;26.54;97318.22;5094719;28;20032;-73
2022/04/27 09:35:34;;;;;;;1.77;1.50;;;;;;;32.76;26.20;97312.19;5095242;28;20501;-72
2022/04/27 09:38:17;;;;;;;5.35;2.28;;;;;;;34.73;26.44;97306.78;5094646;28;20043;-73
2022/04/27 09:40:57;;;;;;;16.02;4.15;;;;;;;35.16;25.69;97311.63;5112338;28;20504;-73
2022/04/27 09:43:45;;;;;;;3.75;1.67;;;;;;;34.97;25.53;97306.63;5086591;28;20028;-73
2022/04/27 09:46:15;;;;;;;2.97;1.77;;;;;;;35.66;24.73;97317.06;5094664;28;20036;-73
2022/04/27 09:48:41;;;;;;;4.65;2.20;;;;;;;36.30;23.30;97297.75;5113341;28;20031;-73
2022/04/27 09:51:12;;;;;;;4.78;2.10;;;;;;;35.23;24.28;97297.53;5111639;28;20059;-73
2022/04/27 09:53:38;;;;;;;;;;;;;;;35.71;24.12;97300.44;5095297;28;20433;-73
2022/04/27 09:56:06;;;;;;;4.15;2.10;;;;;;;35.87;23.17;97287.53;5111576;28;19923;-73
2022/04/27 09:58:32;;;;;;;5.93;1.70;;;;;;;35.84;23.01;97280.53;5111742;28;20103;-73
2022/04/27 10:01:04;;;;;;;5.93;2.00;;;;;;;37.28;21.83;97271.19;5111673;28;20038;-74
2022/04/27 10:03:34;;;;;;;8.32;3.00;;;;;;;38.11;21.33;97266.47;5095170;28;20433;-73
2022/04/27 10:05:59;;;;;;;6.72;2.25;;;;;;;37.87;21.92;97278.13;5111498;28;20031;-74
2022/04/27 10:08:27;;;;;;;7.20;2.20;;;;;;;36.91;22.67;97274.84;5094478;28;20646;-74
2022/04/27 10:10:54;;;;;;;12.95;2.15;;;;;;;34.60;24.61;97267.41;5094489;28;20107;-73
2022/04/27 10:13:20;;;;;;;2.83;2.10;;;;;;;35.57;24.37;97285.22;5094238;28;20402;-73
2022/04/27 10:15:46;;;;;;;8.70;2.05;;;;;;;34.41;25.90;97282.63;5111524;28;20035;-73
2022/04/27 10:18:18;;;;;;;4.78;2.20;;;;;;;34.38;26.03;97277.56;5094540;28;20028;-73
2022/04/27 10:20:44;;;;;;;2.47;1.90;;;;;;;33.86;25.66;97269.41;5095038;28;20027;-73
2022/04/27 10:23:31;;;;;;;7.90;2.17;;;;;;;34.49;25.16;97266.34;5094107;28;20505;-73
2022/04/27 10:26:17;;;;;;;7.30;2.30;;;;;;;36.15;24.62;97269.72;5111289;28;20411;-73
2022/04/27 10:28:57;;;;;;;3.25;2.20;;;;;;;36.17;24.19;97268.38;5094422;28;20118;-73
2022/04/27 10:31:46;;;;;;;3.97;2.45;;;;;;;35.57;24.50;97262.94;5094220;28;20019;-73
2022/04/27 10:34:20;;;;;;;3.03;2.10;;;;;;;35.85;24.93;97259.94;5111322;28;20059;-73
2022/04/27 10:36:49;;;;;;;7.15;2.20;;;;;;;36.38;23.89;97258.25;5110563;28;20084;-73
2022/04/27 10:39:15;;;;;;;5.65;2.00;;;;;;;35.33;24.54;97259.56;5110936;28;20501;-73
2022/04/27 10:42:18;;;;;;;3.65;1.60;;;;;;;35.50;24.35;97245.56;5093713;28;20027;-72
2022/04/27 10:44:50;;;;;;;5.93;2.20;;;;;;;34.79;25.65;97252.13;5110622;28;20119;-73
2022/04/27 10:47:20;;;;;;;5.03;2.00;;;;;;;34.15;26.37;97248.00;5110975;28;20027;-73
2022/04/27 10:49:47;;;;;;;5.07;2.40;;;;;;;35.29;25.54;97254.78;5093675;28;20028;-72
2022/04/27 10:52:13;;;;;;;7.65;2.00;;;;;;;35.38;24.82;97230.97;5093818;28;20391;-73
2022/04/27 10:54:41;;;;;;;6.95;2.25;;;;;;;36.27;24.25;97223.03;5110932;28;20031;-73
2022/04/27 10:57:16;;;;;;;4.07;2.20;;;;;;;36.20;24.58;97239.97;5093385;28;20060;-73
2022/04/27 10:59:56;;;;;;;3.15;1.85;;;;;;;35.42;24.12;97232.13;5110563;28;20026;-73
2022/04/27 11:02:35;;;;;;;4.00;2.05;;;;;;;35.89;24.44;97230.47;5093619;28;20115;-73
2022/04/27 11:05:02;;;;;;;7.82;2.40;;;;;;;36.49;24.03;97225.69;5093225;28;20085;-73
2022/04/27 11:07:34;;;;;;;4.57;1.80;;;;;;;38.27;23.00;97231.84;5093015;28;20470;-73
2022/04/27 11:10:16;;;;;;;4.53;2.30;;;;;;;37.21;23.51;97217.56;5109839;28;20324;-73
2022/04/27 11:12:48;;;;;;;6.88;4.95;;;;;;;36.48;24.76;97224.88;5093253;28;20494;-73
2022/04/27 11:15:17;;;;;;;;;;;;;;;37.51;22.81;97214.91;5093816;28;20471;-73
2022/04/27 11:17:43;;;;;;;5.88;2.00;;;;;;;38.61;22.01;97198.56;5093284;28;19959;-73
2022/04/27 11:20:27;;;;;;;3.78;1.98;;;;;;;39.41;21.29;97203.13;5092962;28;20070;-73
2022/04/27 11:22:53;;;;;;;3.58;2.00;;;;;;;39.26;21.20;97215.22;5093369;28;20042;-73
2022/04/27 11:25:28;;;;;;;7.72;2.65;;;;;;;38.34;21.88;97204.41;5093232;28;20110;-73
2022/04/27 11:27:54;;;;;;;5.22;1.98;;;;;;;37.59;22.75;97205.16;5111580;28;20027;-73
2022/04/27 11:30:21;;;;;;;3.30;2.03;;;;;;;37.00;22.99;97187.88;5093047;28;20027;-73
2022/04/27 11:32:48;;;;;;;9.73;1.98;;;;;;;37.36;22.90;97186.91;5093103;28;20023;-73
2022/04/27 11:35:14;;;;;;;2.90;1.50;;;;;;;37.53;22.47;97187.56;5110040;28;20023;-73
2022/04/27 11:37:40;;;;;;;8.43;2.20;;;;;;;37.61;22.10;97170.25;5093061;28;20043;-73
2022/04/27 11:40:20;;;;;;;5.47;2.13;;;;;;;38.14;22.20;97182.06;5109864;28;20471;-73
2022/04/27 11:42:47;;;;;;;5.38;1.75;;;;;;;37.65;21.97;97173.34;5110208;28;20486;-73
2022/04/27 11:45:22;;;;;;;9.43;1.90;;;;;;;37.28;22.76;97176.28;5109909;28;20027;-74
2022/04/27 11:48:04;;;;;;;9.60;2.15;;;;;;;36.73;23.79;97169.28;5093221;28;20031;-73
2022/04/27 11:50:34;;;;;;;3.70;2.10;;;;;;;38.41;22.10;97168.66;5109634;28;20020;-73
2022/04/27 11:53:01;;;;;;;3.57;1.80;;;;;;;38.93;21.71;97162.69;5110143;28;20513;-73
2022/04/27 11:55:27;;;;;;;8.80;1.70;;;;;;;38.69;20.98;97151.28;5092765;28;20023;-73
2022/04/27 11:57:53;;;;;;;5.63;1.73;;;;;;;38.81;21.22;97151.84;5092783;28;20020;-73
2022/04/27 12:00:20;;;;;;;4.82;1.70;;;;;;;38.54;21.92;97148.53;5092630;28;20027;-73
2022/04/27 12:02:47;;;;;;;4.25;1.88;;;;;;;38.77;21.63;97153.47;5092734;28;20036;-73
2022/04/27 12:05:14;;;;;;;7.85;2.17;;;;;;;37.86;22.56;97149.91;5110077;28;20038;-72